sensor_id;sensor_type;location;lat;lon;timestamp;temperature;humidity
23827;DHT22;12094;50.822;4.376;2023-05-10T00:02:03;13.10;99.90
23827;DHT22;12094;50.822;4.376;2023-05-10T00:04:32;13.20;99.90
23827;DHT22;12094;50.822;4.376;2023-05-10T00:07:00;13.20;99.90
23827;DHT22;12094;50.822;4.376;2023-05-10T00:09:28;13.10;99.90
23827;DHT22;12094;50.822;4.376;2023-05-10T00:11:55;13.10;99.90
23827;DHT22;12094;50.822;4.376;2023-05-10T00:14:22;13.10;99.90
23827;DHT22;12094;50.822;4.376;2023-05-10T00:16:49;13.00;99.90
23827;DHT22;12094;50.822;4.376;2023-05-10T00:19:16;13.00;99.90
23827;DHT22;12094;50.822;4.376;2023-05-10T00:21:46;13.10;99.90
23827;DHT22;12094;50.822;4.376;2023-05-10T00:24:13;13.00;99.90
23827;DHT22;12094;50.822;4.376;2023-05-10T00:26:41;13.00;99.90
23827;DHT22;12094;50.822;4.376;2023-05-10T00:29:09;13.10;99.90
23827;DHT22;12094;50.822;4.376;2023-05-10T00:31:36;13.10;99.90
23827;DHT22;12094;50.822;4.376;2023-05-10T00:34:03;13.10;99.90
23827;DHT22;12094;50.822;4.376;2023-05-10T00:36:32;13.10;99.90
23827;DHT22;12094;50.822;4.376;2023-05-10T00:39:03;13.20;99.90
23827;DHT22;12094;50.822;4.376;2023-05-10T00:41:31;13.10;99.90
23827;DHT22;12094;50.822;4.376;2023-05-10T00:44:01;13.10;99.90
23827;DHT22;12094;50.822;4.376;2023-05-10T00:46:29;13.00;99.90
23827;DHT22;12094;50.822;4.376;2023-05-10T00:48:59;13.00;99.90
23827;DHT22;12094;50.822;4.376;2023-05-10T00:51:26;13.00;99.90
23827;DHT22;12094;50.822;4.376;2023-05-10T00:53:56;13.00;99.90
23827;DHT22;12094;50.822;4.376;2023-05-10T00:56:24;13.00;99.90
23827;DHT22;12094;50.822;4.376;2023-05-10T00:58:52;13.00;99.90
23827;DHT22;12094;50.822;4.376;2023-05-10T01:01:20;12.90;99.90
23827;DHT22;12094;50.822;4.376;2023-05-10T01:03:51;13.00;99.90
23827;DHT22;12094;50.822;4.376;2023-05-10T01:06:20;13.00;99.90
23827;DHT22;12094;50.822;4.376;2023-05-10T01:08:47;13.10;99.90
23827;DHT22;12094;50.822;4.376;2023-05-10T01:11:14;13.10;99.90
23827;DHT22;12094;50.822;4.376;2023-05-10T01:13:43;13.10;99.90
23827;DHT22;12094;50.822;4.376;2023-05-10T01:16:16;13.20;99.90
23827;DHT22;12094;50.822;4.376;2023-05-10T01:18:44;13.30;99.90
23827;DHT22;12094;50.822;4.376;2023-05-10T01:35:17;13.20;99.90
23827;DHT22;12094;50.822;4.376;2023-05-10T01:37:58;13.20;99.90
23827;DHT22;12094;50.822;4.376;2023-05-10T01:40:42;13.20;99.90
23827;DHT22;12094;50.822;4.376;2023-05-10T01:43:17;13.20;99.90
23827;DHT22;12094;50.822;4.376;2023-05-10T01:48:18;13.10;99.90
23827;DHT22;12094;50.822;4.376;2023-05-10T01:50:48;13.00;99.90
23827;DHT22;12094;50.822;4.376;2023-05-10T01:53:18;13.20;99.90
23827;DHT22;12094;50.822;4.376;2023-05-10T01:55:49;13.20;99.90
23827;DHT22;12094;50.822;4.376;2023-05-10T01:58:27;13.20;99.90
23827;DHT22;12094;50.822;4.376;2023-05-10T02:00:55;13.30;99.90
23827;DHT22;12094;50.822;4.376;2023-05-10T02:03:27;13.30;99.90
23827;DHT22;12094;50.822;4.376;2023-05-10T02:05:57;13.30;99.90
23827;DHT22;12094;50.822;4.376;2023-05-10T02:08:24;13.30;99.90
23827;DHT22;12094;50.822;4.376;2023-05-10T02:10:54;13.20;99.90
23827;DHT22;12094;50.822;4.376;2023-05-10T02:13:23;13.20;99.90
23827;DHT22;12094;50.822;4.376;2023-05-10T02:15:51;13.20;99.90
23827;DHT22;12094;50.822;4.376;2023-05-10T02:18:22;13.30;99.90
23827;DHT22;12094;50.822;4.376;2023-05-10T02:20:52;13.40;99.90
23827;DHT22;12094;50.822;4.376;2023-05-10T02:23:21;13.30;99.90
23827;DHT22;12094;50.822;4.376;2023-05-10T02:25:51;13.40;99.90
23827;DHT22;12094;50.822;4.376;2023-05-10T02:28:21;13.30;99.90
23827;DHT22;12094;50.822;4.376;2023-05-10T02:30:49;13.30;99.90
23827;DHT22;12094;50.822;4.376;2023-05-10T02:33:17;13.40;99.90
23827;DHT22;12094;50.822;4.376;2023-05-10T02:35:46;13.40;99.90
23827;DHT22;12094;50.822;4.376;2023-05-10T02:38:14;13.30;99.90
23827;DHT22;12094;50.822;4.376;2023-05-10T02:40:42;13.20;99.90
23827;DHT22;12094;50.822;4.376;2023-05-10T02:43:13;13.20;99.90
23827;DHT22;12094;50.822;4.376;2023-05-10T02:45:42;13.10;99.90
23827;DHT22;12094;50.822;4.376;2023-05-10T02:48:10;13.20;99.90
23827;DHT22;12094;50.822;4.376;2023-05-10T02:50:37;13.20;99.90
23827;DHT22;12094;50.822;4.376;2023-05-10T02:53:15;13.20;99.90
23827;DHT22;12094;50.822;4.376;2023-05-10T02:55:49;13.20;99.90
23827;DHT22;12094;50.822;4.376;2023-05-10T02:58:18;13.20;99.90
23827;DHT22;12094;50.822;4.376;2023-05-10T03:00:48;13.30;99.90
23827;DHT22;12094;50.822;4.376;2023-05-10T03:03:15;13.50;99.90
23827;DHT22;12094;50.822;4.376;2023-05-10T03:05:43;13.50;99.90
23827;DHT22;12094;50.822;4.376;2023-05-10T03:08:10;13.50;99.90
23827;DHT22;12094;50.822;4.376;2023-05-10T03:10:41;13.40;99.90
23827;DHT22;12094;50.822;4.376;2023-05-10T03:13:39;13.30;99.90
23827;DHT22;12094;50.822;4.376;2023-05-10T03:16:15;13.40;99.90
23827;DHT22;12094;50.822;4.376;2023-05-10T03:19:51;13.50;99.90
23827;DHT22;12094;50.822;4.376;2023-05-10T03:21:59;13.40;99.90
23827;DHT22;12094;50.822;4.376;2023-05-10T03:24:34;13.30;99.90
23827;DHT22;12094;50.822;4.376;2023-05-10T03:27:03;13.20;99.90
23827;DHT22;12094;50.822;4.376;2023-05-10T03:29:32;13.20;99.90
23827;DHT22;12094;50.822;4.376;2023-05-10T03:32:00;13.10;99.90
23827;DHT22;12094;50.822;4.376;2023-05-10T03:34:30;13.00;99.90
23827;DHT22;12094;50.822;4.376;2023-05-10T03:37:01;13.10;99.90
23827;DHT22;12094;50.822;4.376;2023-05-10T03:39:30;13.00;99.90
23827;DHT22;12094;50.822;4.376;2023-05-10T03:41:59;13.10;99.90
23827;DHT22;12094;50.822;4.376;2023-05-10T03:44:26;13.00;99.90
23827;DHT22;12094;50.822;4.376;2023-05-10T03:46:55;13.00;99.90
23827;DHT22;12094;50.822;4.376;2023-05-10T03:49:26;13.10;99.90
23827;DHT22;12094;50.822;4.376;2023-05-10T03:51:59;13.20;99.90
23827;DHT22;12094;50.822;4.376;2023-05-10T03:54:34;13.30;99.90
23827;DHT22;12094;50.822;4.376;2023-05-10T03:57:09;13.30;99.90
23827;DHT22;12094;50.822;4.376;2023-05-10T03:59:37;13.40;99.90
23827;DHT22;12094;50.822;4.376;2023-05-10T04:02:12;13.30;99.90
23827;DHT22;12094;50.822;4.376;2023-05-10T04:04:41;13.40;99.90
23827;DHT22;12094;50.822;4.376;2023-05-10T04:07:09;13.40;99.90
23827;DHT22;12094;50.822;4.376;2023-05-10T04:10:08;13.40;99.90
23827;DHT22;12094;50.822;4.376;2023-05-10T04:12:41;13.40;99.90
23827;DHT22;12094;50.822;4.376;2023-05-10T04:15:08;13.50;99.90
23827;DHT22;12094;50.822;4.376;2023-05-10T04:17:35;13.50;99.90
23827;DHT22;12094;50.822;4.376;2023-05-10T04:20:07;13.40;99.90
23827;DHT22;12094;50.822;4.376;2023-05-10T04:22:35;13.40;99.90
23827;DHT22;12094;50.822;4.376;2023-05-10T04:25:02;13.40;99.90
23827;DHT22;12094;50.822;4.376;2023-05-10T04:27:29;13.40;99.90
23827;DHT22;12094;50.822;4.376;2023-05-10T04:29:56;13.40;99.90
23827;DHT22;12094;50.822;4.376;2023-05-10T04:32:24;13.30;99.90
23827;DHT22;12094;50.822;4.376;2023-05-10T04:34:52;13.30;99.90
23827;DHT22;12094;50.822;4.376;2023-05-10T04:37:21;13.40;99.90
23827;DHT22;12094;50.822;4.376;2023-05-10T04:39:49;13.40;99.90
23827;DHT22;12094;50.822;4.376;2023-05-10T04:42:16;13.40;99.90
23827;DHT22;12094;50.822;4.376;2023-05-10T04:44:45;13.40;99.90
23827;DHT22;12094;50.822;4.376;2023-05-10T04:47:12;13.40;99.90
23827;DHT22;12094;50.822;4.376;2023-05-10T04:49:43;13.40;99.90
23827;DHT22;12094;50.822;4.376;2023-05-10T04:52:10;13.50;99.90
23827;DHT22;12094;50.822;4.376;2023-05-10T04:54:38;13.50;99.90
23827;DHT22;12094;50.822;4.376;2023-05-10T04:57:05;13.30;99.90
23827;DHT22;12094;50.822;4.376;2023-05-10T04:59:32;13.30;99.90
23827;DHT22;12094;50.822;4.376;2023-05-10T05:01:59;13.20;99.90
23827;DHT22;12094;50.822;4.376;2023-05-10T05:04:27;13.20;99.90
23827;DHT22;12094;50.822;4.376;2023-05-10T05:06:54;13.20;99.90
23827;DHT22;12094;50.822;4.376;2023-05-10T05:09:21;13.30;99.90
23827;DHT22;12094;50.822;4.376;2023-05-10T05:11:50;13.30;99.90
23827;DHT22;12094;50.822;4.376;2023-05-10T05:14:23;13.40;99.90
23827;DHT22;12094;50.822;4.376;2023-05-10T05:16:52;13.30;99.90
23827;DHT22;12094;50.822;4.376;2023-05-10T05:19:20;13.30;99.90
23827;DHT22;12094;50.822;4.376;2023-05-10T05:21:49;13.20;99.90
23827;DHT22;12094;50.822;4.376;2023-05-10T05:24:16;13.20;99.90
23827;DHT22;12094;50.822;4.376;2023-05-10T05:26:46;13.10;99.90
23827;DHT22;12094;50.822;4.376;2023-05-10T05:29:14;13.00;99.90
23827;DHT22;12094;50.822;4.376;2023-05-10T05:31:41;13.00;99.90
23827;DHT22;12094;50.822;4.376;2023-05-10T05:34:09;13.00;99.90
23827;DHT22;12094;50.822;4.376;2023-05-10T05:36:37;12.90;99.90
23827;DHT22;12094;50.822;4.376;2023-05-10T05:39:08;12.80;99.90
23827;DHT22;12094;50.822;4.376;2023-05-10T05:41:36;12.70;99.90
23827;DHT22;12094;50.822;4.376;2023-05-10T05:44:03;12.60;99.90
23827;DHT22;12094;50.822;4.376;2023-05-10T05:46:29;12.60;99.90
23827;DHT22;12094;50.822;4.376;2023-05-10T05:48:57;12.70;99.90
23827;DHT22;12094;50.822;4.376;2023-05-10T05:51:23;12.70;99.90
23827;DHT22;12094;50.822;4.376;2023-05-10T05:53:51;12.70;99.90
23827;DHT22;12094;50.822;4.376;2023-05-10T05:56:18;12.80;99.90
23827;DHT22;12094;50.822;4.376;2023-05-10T05:58:51;12.80;99.90
23827;DHT22;12094;50.822;4.376;2023-05-10T06:01:18;12.90;99.90
23827;DHT22;12094;50.822;4.376;2023-05-10T06:03:47;13.00;99.90
23827;DHT22;12094;50.822;4.376;2023-05-10T06:06:17;12.80;99.90
23827;DHT22;12094;50.822;4.376;2023-05-10T06:08:44;12.80;99.90
23827;DHT22;12094;50.822;4.376;2023-05-10T06:11:11;12.60;99.90
23827;DHT22;12094;50.822;4.376;2023-05-10T06:13:38;12.60;99.90
23827;DHT22;12094;50.822;4.376;2023-05-10T06:16:05;12.60;99.90
23827;DHT22;12094;50.822;4.376;2023-05-10T06:18:34;12.60;99.90
23827;DHT22;12094;50.822;4.376;2023-05-10T06:21:01;12.50;99.90
23827;DHT22;12094;50.822;4.376;2023-05-10T06:23:28;12.40;99.90
23827;DHT22;12094;50.822;4.376;2023-05-10T06:25:56;12.30;99.90
23827;DHT22;12094;50.822;4.376;2023-05-10T06:28:23;12.40;99.90
23827;DHT22;12094;50.822;4.376;2023-05-10T06:30:51;12.40;99.90
23827;DHT22;12094;50.822;4.376;2023-05-10T06:33:18;12.40;99.90
23827;DHT22;12094;50.822;4.376;2023-05-10T06:35:47;12.30;99.90
23827;DHT22;12094;50.822;4.376;2023-05-10T06:38:17;12.20;99.90
23827;DHT22;12094;50.822;4.376;2023-05-10T06:40:44;12.20;99.90
23827;DHT22;12094;50.822;4.376;2023-05-10T06:43:11;12.20;99.90
23827;DHT22;12094;50.822;4.376;2023-05-10T06:45:38;12.20;99.90
23827;DHT22;12094;50.822;4.376;2023-05-10T06:48:05;12.30;99.90
23827;DHT22;12094;50.822;4.376;2023-05-10T06:50:33;12.30;99.90
23827;DHT22;12094;50.822;4.376;2023-05-10T06:53:00;12.30;99.90
23827;DHT22;12094;50.822;4.376;2023-05-10T06:55:29;12.30;99.90
23827;DHT22;12094;50.822;4.376;2023-05-10T06:57:56;12.30;99.90
23827;DHT22;12094;50.822;4.376;2023-05-10T07:00:23;12.20;99.90
23827;DHT22;12094;50.822;4.376;2023-05-10T07:02:54;12.20;99.90
23827;DHT22;12094;50.822;4.376;2023-05-10T07:05:22;12.20;99.90
23827;DHT22;12094;50.822;4.376;2023-05-10T07:08:00;12.20;99.90
23827;DHT22;12094;50.822;4.376;2023-05-10T07:10:28;12.10;99.90
23827;DHT22;12094;50.822;4.376;2023-05-10T07:13:00;12.10;99.90
23827;DHT22;12094;50.822;4.376;2023-05-10T07:15:28;12.20;99.90
23827;DHT22;12094;50.822;4.376;2023-05-10T07:18:05;12.20;99.90
23827;DHT22;12094;50.822;4.376;2023-05-10T07:20:34;12.20;99.90
23827;DHT22;12094;50.822;4.376;2023-05-10T07:23:03;12.20;99.90
23827;DHT22;12094;50.822;4.376;2023-05-10T07:25:30;12.20;99.90
23827;DHT22;12094;50.822;4.376;2023-05-10T07:28:00;12.20;99.90
23827;DHT22;12094;50.822;4.376;2023-05-10T07:30:27;12.20;99.90
23827;DHT22;12094;50.822;4.376;2023-05-10T07:32:54;12.30;99.90
23827;DHT22;12094;50.822;4.376;2023-05-10T07:35:23;12.40;99.90
23827;DHT22;12094;50.822;4.376;2023-05-10T07:37:50;12.50;99.90
23827;DHT22;12094;50.822;4.376;2023-05-10T07:40:18;12.50;99.90
23827;DHT22;12094;50.822;4.376;2023-05-10T07:42:45;12.50;99.90
23827;DHT22;12094;50.822;4.376;2023-05-10T07:45:12;12.50;99.90
23827;DHT22;12094;50.822;4.376;2023-05-10T07:47:40;12.40;99.90
23827;DHT22;12094;50.822;4.376;2023-05-10T07:50:07;12.50;99.90
23827;DHT22;12094;50.822;4.376;2023-05-10T07:52:34;12.60;99.90
23827;DHT22;12094;50.822;4.376;2023-05-10T07:55:02;12.70;99.90
23827;DHT22;12094;50.822;4.376;2023-05-10T07:57:34;12.60;99.90
23827;DHT22;12094;50.822;4.376;2023-05-10T08:00:07;12.70;99.90
23827;DHT22;12094;50.822;4.376;2023-05-10T08:02:41;12.70;99.90
23827;DHT22;12094;50.822;4.376;2023-05-10T08:05:08;12.50;99.90
23827;DHT22;12094;50.822;4.376;2023-05-10T08:07:36;12.60;99.90
23827;DHT22;12094;50.822;4.376;2023-05-10T08:10:04;12.80;99.90
23827;DHT22;12094;50.822;4.376;2023-05-10T08:12:31;12.90;99.90
23827;DHT22;12094;50.822;4.376;2023-05-10T08:14:59;12.90;99.90
23827;DHT22;12094;50.822;4.376;2023-05-10T08:17:27;12.90;99.90
23827;DHT22;12094;50.822;4.376;2023-05-10T08:19:54;13.00;99.90
23827;DHT22;12094;50.822;4.376;2023-05-10T08:22:22;13.00;99.90
23827;DHT22;12094;50.822;4.376;2023-05-10T08:24:59;13.00;99.90
23827;DHT22;12094;50.822;4.376;2023-05-10T08:27:55;12.90;99.90
23827;DHT22;12094;50.822;4.376;2023-05-10T08:30:22;12.90;99.90
23827;DHT22;12094;50.822;4.376;2023-05-10T08:33:19;13.00;99.90
23827;DHT22;12094;50.822;4.376;2023-05-10T08:35:47;13.20;99.90
23827;DHT22;12094;50.822;4.376;2023-05-10T08:38:14;13.40;99.90
23827;DHT22;12094;50.822;4.376;2023-05-10T08:40:43;13.20;99.90
23827;DHT22;12094;50.822;4.376;2023-05-10T08:43:12;13.50;99.90
23827;DHT22;12094;50.822;4.376;2023-05-10T08:45:43;13.30;99.90
23827;DHT22;12094;50.822;4.376;2023-05-10T08:48:14;13.20;99.90
23827;DHT22;12094;50.822;4.376;2023-05-10T08:50:42;13.10;99.90
23827;DHT22;12094;50.822;4.376;2023-05-10T08:53:12;13.30;99.90
23827;DHT22;12094;50.822;4.376;2023-05-10T08:55:42;13.40;99.90
23827;DHT22;12094;50.822;4.376;2023-05-10T08:58:09;13.30;99.90
23827;DHT22;12094;50.822;4.376;2023-05-10T09:00:36;13.20;99.90
23827;DHT22;12094;50.822;4.376;2023-05-10T09:03:05;13.30;99.90
23827;DHT22;12094;50.822;4.376;2023-05-10T09:05:33;13.10;99.90
23827;DHT22;12094;50.822;4.376;2023-05-10T09:08:00;12.90;99.90
23827;DHT22;12094;50.822;4.376;2023-05-10T09:10:28;12.90;99.90
23827;DHT22;12094;50.822;4.376;2023-05-10T09:12:57;12.70;99.90
23827;DHT22;12094;50.822;4.376;2023-05-10T09:15:26;12.70;99.90
23827;DHT22;12094;50.822;4.376;2023-05-10T09:17:54;12.70;99.90
23827;DHT22;12094;50.822;4.376;2023-05-10T09:20:21;12.70;99.90
23827;DHT22;12094;50.822;4.376;2023-05-10T09:22:49;12.80;99.90
23827;DHT22;12094;50.822;4.376;2023-05-10T09:25:16;12.90;99.90
23827;DHT22;12094;50.822;4.376;2023-05-10T09:27:46;13.00;99.90
23827;DHT22;12094;50.822;4.376;2023-05-10T09:30:31;13.00;99.90
23827;DHT22;12094;50.822;4.376;2023-05-10T09:32:59;12.80;99.90
23827;DHT22;12094;50.822;4.376;2023-05-10T09:35:28;12.70;99.90
23827;DHT22;12094;50.822;4.376;2023-05-10T09:38:00;12.80;99.90
23827;DHT22;12094;50.822;4.376;2023-05-10T09:40:28;13.00;99.90
23827;DHT22;12094;50.822;4.376;2023-05-10T09:43:06;13.20;99.90
23827;DHT22;12094;50.822;4.376;2023-05-10T09:45:35;13.10;99.90
23827;DHT22;12094;50.822;4.376;2023-05-10T09:48:05;13.00;99.90
23827;DHT22;12094;50.822;4.376;2023-05-10T09:50:33;13.20;99.90
23827;DHT22;12094;50.822;4.376;2023-05-10T09:53:02;13.10;99.90
23827;DHT22;12094;50.822;4.376;2023-05-10T09:55:40;12.90;99.90
23827;DHT22;12094;50.822;4.376;2023-05-10T09:58:08;12.80;99.90
23827;DHT22;12094;50.822;4.376;2023-05-10T10:00:40;12.70;99.90
23827;DHT22;12094;50.822;4.376;2023-05-10T10:03:13;12.70;99.90
23827;DHT22;12094;50.822;4.376;2023-05-10T10:05:42;12.60;99.90
23827;DHT22;12094;50.822;4.376;2023-05-10T10:08:10;12.50;99.90
23827;DHT22;12094;50.822;4.376;2023-05-10T10:10:40;12.50;99.90
23827;DHT22;12094;50.822;4.376;2023-05-10T10:13:08;12.50;99.90
23827;DHT22;12094;50.822;4.376;2023-05-10T10:15:34;12.50;99.90
23827;DHT22;12094;50.822;4.376;2023-05-10T10:18:03;12.60;99.90
23827;DHT22;12094;50.822;4.376;2023-05-10T10:20:33;12.70;99.90
23827;DHT22;12094;50.822;4.376;2023-05-10T10:23:00;12.70;99.90
23827;DHT22;12094;50.822;4.376;2023-05-10T10:25:29;12.80;99.90
23827;DHT22;12094;50.822;4.376;2023-05-10T10:30:46;12.90;99.90
23827;DHT22;12094;50.822;4.376;2023-05-10T10:36:15;12.80;99.90
23827;DHT22;12094;50.822;4.376;2023-05-10T10:41:33;13.00;99.90
23827;DHT22;12094;50.822;4.376;2023-05-10T10:49:48;13.00;99.90
23827;DHT22;12094;50.822;4.376;2023-05-10T10:55:09;13.20;99.90
23827;DHT22;12094;50.822;4.376;2023-05-10T10:57:46;13.20;99.90
23827;DHT22;12094;50.822;4.376;2023-05-10T11:03:08;13.60;99.90
23827;DHT22;12094;50.822;4.376;2023-05-10T11:05:45;13.60;99.90
23827;DHT22;12094;50.822;4.376;2023-05-10T11:10:39;13.80;99.90
23827;DHT22;12094;50.822;4.376;2023-05-10T11:13:09;14.00;99.90
23827;DHT22;12094;50.822;4.376;2023-05-10T11:15:38;14.10;99.90
23827;DHT22;12094;50.822;4.376;2023-05-10T11:18:28;14.30;99.90
23827;DHT22;12094;50.822;4.376;2023-05-10T11:21:02;14.40;99.90
23827;DHT22;12094;50.822;4.376;2023-05-10T11:26:16;15.00;99.90
23827;DHT22;12094;50.822;4.376;2023-05-10T11:28:44;14.90;99.90
23827;DHT22;12094;50.822;4.376;2023-05-10T11:31:19;15.10;99.90
23827;DHT22;12094;50.822;4.376;2023-05-10T11:33:49;15.00;99.90
23827;DHT22;12094;50.822;4.376;2023-05-10T11:36:23;15.00;99.90
23827;DHT22;12094;50.822;4.376;2023-05-10T11:38:52;15.20;99.90
23827;DHT22;12094;50.822;4.376;2023-05-10T11:41:21;15.40;99.90
23827;DHT22;12094;50.822;4.376;2023-05-10T11:43:53;15.80;99.90
23827;DHT22;12094;50.822;4.376;2023-05-10T11:46:22;16.10;99.90
23827;DHT22;12094;50.822;4.376;2023-05-10T11:48:51;16.40;99.90
23827;DHT22;12094;50.822;4.376;2023-05-10T11:51:20;16.30;99.90
23827;DHT22;12094;50.822;4.376;2023-05-10T11:53:49;16.20;99.90
23827;DHT22;12094;50.822;4.376;2023-05-10T11:56:20;16.10;99.90
23827;DHT22;12094;50.822;4.376;2023-05-10T11:58:53;15.80;99.90
23827;DHT22;12094;50.822;4.376;2023-05-10T12:01:23;15.60;99.90
23827;DHT22;12094;50.822;4.376;2023-05-10T12:03:52;15.50;99.90
23827;DHT22;12094;50.822;4.376;2023-05-10T12:06:21;15.50;99.90
23827;DHT22;12094;50.822;4.376;2023-05-10T12:08:49;15.50;99.90
23827;DHT22;12094;50.822;4.376;2023-05-10T12:11:25;15.50;99.90
23827;DHT22;12094;50.822;4.376;2023-05-10T12:13:53;15.70;99.90
23827;DHT22;12094;50.822;4.376;2023-05-10T12:16:27;16.00;99.90
23827;DHT22;12094;50.822;4.376;2023-05-10T12:19:00;15.80;99.90
23827;DHT22;12094;50.822;4.376;2023-05-10T12:21:30;15.90;99.90
23827;DHT22;12094;50.822;4.376;2023-05-10T12:24:04;15.80;99.90
23827;DHT22;12094;50.822;4.376;2023-05-10T12:26:32;16.30;99.90
23827;DHT22;12094;50.822;4.376;2023-05-10T12:29:16;16.80;99.90
23827;DHT22;12094;50.822;4.376;2023-05-10T12:31:58;17.10;99.90
23827;DHT22;12094;50.822;4.376;2023-05-10T12:34:34;17.20;99.90
23827;DHT22;12094;50.822;4.376;2023-05-10T12:37:05;17.20;99.90
23827;DHT22;12094;50.822;4.376;2023-05-10T12:39:43;17.50;99.90
23827;DHT22;12094;50.822;4.376;2023-05-10T12:42:12;17.90;99.90
23827;DHT22;12094;50.822;4.376;2023-05-10T12:44:39;17.80;99.90
23827;DHT22;12094;50.822;4.376;2023-05-10T12:47:06;17.00;99.90
23827;DHT22;12094;50.822;4.376;2023-05-10T12:49:34;16.70;99.90
23827;DHT22;12094;50.822;4.376;2023-05-10T12:52:02;16.80;99.90
23827;DHT22;12094;50.822;4.376;2023-05-10T12:54:31;16.30;99.90
23827;DHT22;12094;50.822;4.376;2023-05-10T12:56:58;16.30;99.90
23827;DHT22;12094;50.822;4.376;2023-05-10T12:59:25;16.70;99.90
23827;DHT22;12094;50.822;4.376;2023-05-10T13:01:52;17.10;99.90
23827;DHT22;12094;50.822;4.376;2023-05-10T13:04:19;17.10;99.90
23827;DHT22;12094;50.822;4.376;2023-05-10T13:06:46;16.90;99.90
23827;DHT22;12094;50.822;4.376;2023-05-10T13:09:13;16.50;99.90
23827;DHT22;12094;50.822;4.376;2023-05-10T13:11:41;16.60;99.90
23827;DHT22;12094;50.822;4.376;2023-05-10T13:14:08;16.90;99.90
23827;DHT22;12094;50.822;4.376;2023-05-10T13:16:37;17.00;99.90
23827;DHT22;12094;50.822;4.376;2023-05-10T13:19:05;17.10;99.90
23827;DHT22;12094;50.822;4.376;2023-05-10T13:21:33;17.30;99.90
23827;DHT22;12094;50.822;4.376;2023-05-10T13:23:59;17.20;99.90
23827;DHT22;12094;50.822;4.376;2023-05-10T13:26:28;17.00;99.90
23827;DHT22;12094;50.822;4.376;2023-05-10T13:28:55;17.20;99.90
23827;DHT22;12094;50.822;4.376;2023-05-10T13:31:24;17.30;99.90
23827;DHT22;12094;50.822;4.376;2023-05-10T13:34:02;17.60;99.90
23827;DHT22;12094;50.822;4.376;2023-05-10T13:36:37;17.90;99.90
23827;DHT22;12094;50.822;4.376;2023-05-10T13:39:52;17.70;99.90
23827;DHT22;12094;50.822;4.376;2023-05-10T13:42:27;17.20;99.90
23827;DHT22;12094;50.822;4.376;2023-05-10T13:44:56;17.20;99.90
23827;DHT22;12094;50.822;4.376;2023-05-10T13:47:29;17.20;99.90
23827;DHT22;12094;50.822;4.376;2023-05-10T13:50:04;17.30;99.90
23827;DHT22;12094;50.822;4.376;2023-05-10T13:52:37;17.30;99.90
23827;DHT22;12094;50.822;4.376;2023-05-10T13:55:05;17.40;99.90
23827;DHT22;12094;50.822;4.376;2023-05-10T13:57:32;17.60;99.90
23827;DHT22;12094;50.822;4.376;2023-05-10T14:00:01;17.90;99.90
23827;DHT22;12094;50.822;4.376;2023-05-10T14:02:33;17.70;99.90
23827;DHT22;12094;50.822;4.376;2023-05-10T14:05:02;17.50;99.90
23827;DHT22;12094;50.822;4.376;2023-05-10T14:07:31;17.30;99.90
23827;DHT22;12094;50.822;4.376;2023-05-10T14:09:58;17.00;99.90
23827;DHT22;12094;50.822;4.376;2023-05-10T14:12:27;16.70;99.90
23827;DHT22;12094;50.822;4.376;2023-05-10T14:14:54;16.60;99.90
23827;DHT22;12094;50.822;4.376;2023-05-10T14:17:22;16.70;99.90
23827;DHT22;12094;50.822;4.376;2023-05-10T14:19:54;16.90;99.90
23827;DHT22;12094;50.822;4.376;2023-05-10T14:22:21;16.70;99.90
23827;DHT22;12094;50.822;4.376;2023-05-10T14:24:48;16.70;99.90
23827;DHT22;12094;50.822;4.376;2023-05-10T14:27:16;17.00;99.90
23827;DHT22;12094;50.822;4.376;2023-05-10T14:29:43;17.60;99.90
23827;DHT22;12094;50.822;4.376;2023-05-10T14:32:10;17.90;99.90
23827;DHT22;12094;50.822;4.376;2023-05-10T14:34:38;18.20;99.90
23827;DHT22;12094;50.822;4.376;2023-05-10T14:37:05;18.30;99.90
23827;DHT22;12094;50.822;4.376;2023-05-10T14:39:58;18.20;99.90
23827;DHT22;12094;50.822;4.376;2023-05-10T14:42:25;18.20;99.90
23827;DHT22;12094;50.822;4.376;2023-05-10T14:44:53;17.90;99.90
23827;DHT22;12094;50.822;4.376;2023-05-10T14:47:20;17.90;99.90
23827;DHT22;12094;50.822;4.376;2023-05-10T14:49:48;17.90;99.90
23827;DHT22;12094;50.822;4.376;2023-05-10T14:52:16;17.70;99.90
23827;DHT22;12094;50.822;4.376;2023-05-10T14:54:48;17.80;99.90
23827;DHT22;12094;50.822;4.376;2023-05-10T14:57:16;17.80;99.90
23827;DHT22;12094;50.822;4.376;2023-05-10T14:59:44;17.90;99.90
23827;DHT22;12094;50.822;4.376;2023-05-10T15:02:12;17.90;99.90
23827;DHT22;12094;50.822;4.376;2023-05-10T15:04:47;17.80;99.90
23827;DHT22;12094;50.822;4.376;2023-05-10T15:07:15;17.80;99.90
23827;DHT22;12094;50.822;4.376;2023-05-10T15:09:44;17.50;99.90
23827;DHT22;12094;50.822;4.376;2023-05-10T15:12:14;16.80;99.90
23827;DHT22;12094;50.822;4.376;2023-05-10T15:14:42;16.60;99.90
23827;DHT22;12094;50.822;4.376;2023-05-10T15:17:09;16.60;99.90
23827;DHT22;12094;50.822;4.376;2023-05-10T15:19:37;16.60;99.90
23827;DHT22;12094;50.822;4.376;2023-05-10T15:22:05;16.40;99.90
23827;DHT22;12094;50.822;4.376;2023-05-10T15:24:32;16.30;99.90
23827;DHT22;12094;50.822;4.376;2023-05-10T15:27:01;16.20;99.90
23827;DHT22;12094;50.822;4.376;2023-05-10T15:29:29;16.00;99.90
23827;DHT22;12094;50.822;4.376;2023-05-10T15:31:56;15.90;99.90
23827;DHT22;12094;50.822;4.376;2023-05-10T15:34:23;15.70;99.90
23827;DHT22;12094;50.822;4.376;2023-05-10T15:36:51;15.80;99.90
23827;DHT22;12094;50.822;4.376;2023-05-10T15:39:23;15.80;99.90
23827;DHT22;12094;50.822;4.376;2023-05-10T15:41:55;15.80;99.90
23827;DHT22;12094;50.822;4.376;2023-05-10T15:44:22;16.00;99.90
23827;DHT22;12094;50.822;4.376;2023-05-10T15:46:50;16.10;99.90
23827;DHT22;12094;50.822;4.376;2023-05-10T15:49:18;16.30;99.90
23827;DHT22;12094;50.822;4.376;2023-05-10T15:51:45;16.50;99.90
23827;DHT22;12094;50.822;4.376;2023-05-10T15:54:12;16.70;99.90
23827;DHT22;12094;50.822;4.376;2023-05-10T15:56:42;16.90;99.90
23827;DHT22;12094;50.822;4.376;2023-05-10T15:59:10;16.80;99.90
23827;DHT22;12094;50.822;4.376;2023-05-10T16:01:37;16.70;99.90
23827;DHT22;12094;50.822;4.376;2023-05-10T16:04:04;16.70;99.90
23827;DHT22;12094;50.822;4.376;2023-05-10T16:06:32;16.90;99.90
23827;DHT22;12094;50.822;4.376;2023-05-10T16:08:59;17.10;99.90
23827;DHT22;12094;50.822;4.376;2023-05-10T16:11:30;17.30;99.90
23827;DHT22;12094;50.822;4.376;2023-05-10T16:13:58;17.30;99.90
23827;DHT22;12094;50.822;4.376;2023-05-10T16:16:37;17.50;99.90
23827;DHT22;12094;50.822;4.376;2023-05-10T16:19:05;17.60;99.90
23827;DHT22;12094;50.822;4.376;2023-05-10T16:21:33;17.60;99.90
23827;DHT22;12094;50.822;4.376;2023-05-10T16:24:01;17.70;99.90
23827;DHT22;12094;50.822;4.376;2023-05-10T16:26:33;17.70;99.90
23827;DHT22;12094;50.822;4.376;2023-05-10T16:29:07;17.60;99.90